Tiempo atmosférico en la estación meteorológica de Jabaloyas, Teruel (1430 m.)



Fecha
DESCASC
Temp. máxima en grados centígrados (hora)
DESCASC
Temp. mínima en grados centígrados (hora)
DESCASC
Temp. media en grados centígrados
DESCASC
Racha de viento máxima en m/sg (hora)
DESCASC
Velocidad máxima media en intervalos de 10 minutos(hora)
DESCASC
Precipitaciones diarias en mm
DESCASC
Precipitaciones de 00:00 a 06:00 en mm
DESCASC
Precipitaciones de 06:00 a 12:00 en mm
DESCASC
Precipitaciones de 12:00 a 18:00 en mm
DESCASC
Precipitaciones de 18:00 a 24:00 en mm
DESCASC
18-04-2019 8.9 (06:30) 3.2 (19:40) 6 10.28 (02:20) 6.67 (02:30) 24.2 0 0 5.4 18.8
17-04-2019 13.8 (14:10) 4.6 (04:10) 9.2 14.72 (02:00) 8.33 (01:10) 0 0 0 0 0
16-04-2019 15.7 (17:10) 3.3 (00:00) 9.5 11.39 (23:00) 7.78 (23:59) 0.8 0.8 0 0 0
15-04-2019 16.4 (14:30) 8.7 (00:00) 12.5 13.61 (22:10) 7.22 (22:20) 3.2 0 0 0 3.2
14-04-2019 18.7 (17:00) 7.9 (00:00) 13.3 11.94 (09:00) 7.5 (02:40) 0 0 0 0 0
13-04-2019 15.1 (18:00) 0.8 (00:00) 8 10.28 (23:10) 6.94 (23:20) 0 0 0 0 0
12-04-2019 10.2 (16:50) -0.2 (00:00) 5 11.11 (05:30) 7.5 (05:30) 0 0 0 0 0
11-04-2019 8.3 (18:00) 0.6 (00:00) 4.5 16.11 (14:40) 8.06 (12:40) 0 0 0 0 0
10-04-2019 7.3 (15:50) 0.6 (00:00) 4 13.89 (00:20) 9.17 (01:40) 0.4 0 0 0.2 0.2
09-04-2019 6.5 (16:10) 1.6 (00:00) 4.1 16.11 (17:00) 11.11 (21:00) 2 0 0 1.2 0.8
08-04-2019 9.6 (17:50) 2.5 (00:00) 6.1 15 (07:50) 8.61 (17:10) 0.2 0 0 0.2 0
07-04-2019 6 (17:20) -1.1 (-00:0) 2.4 14.72 (22:40) 9.44 (11:10) 0 0 0 0 0
06-04-2019 2.7 (14:30) -1.3 (-00:0) 0.7 16.11 (09:50) 8.89 (00:20) 1.4 0 0 0.8 0.6
05-04-2019 3.6 (13:20) -1 (-00:0) 1.3 17.5 (21:00) 8.89 (21:00) 7.2 0 0 4.6 2.6
04-04-2019 8.5 (17:20) -2.8 (-00:0) 2.9 11.11 (04:00) 7.5 (05:10) 0 0 0 0 0
03-04-2019 10.3 (16:00) -0.5 (23:59) 4.9 12.5 (03:00) 7.78 (01:20) 0 0 0 0 0
02-04-2019 9.8 (13:40) 3.5 (00:00) 6.7 13.06 (14:40) 8.06 (14:30) 10 0 0.2 8.6 1.2
01-04-2019 7 (18:00) 3.2 (00:00) 5.1 7.78 (15:50) 4.17 (15:50) 6.8 2.8 0.8 1 2.2
31-03-2019 5.9 (03:20) 2 (00:00) 4 6.94 (13:40) 3.89 (00:10) 23.2 0 6 14.4 2.8
30-03-2019 11.9 (15:40) 1.1 (00:00) 6.5 10.83 (19:00) 6.11 (20:20) 0 0 0 0 0
29-03-2019 10.2 (13:50) 1.6 (00:00) 5.9 11.11 (11:20) 6.67 (23:10) 0 0 0 0 0
28-03-2019 12.8 (16:30) 1.3 (00:00) 7.1 9.72 (21:00) 6.39 (19:40) 0 0 0 0 0
27-03-2019 11.5 (16:10) -2.6 (-00:0) 4.5 9.72 (13:30) 4.17 (14:00) 0 0 0 0 0
26-03-2019 13.1 (16:30) -0.6 (-00:0) 6.3 9.72 (17:00) 5.56 (05:30) 0 0 0 0 0
25-03-2019 14.4 (16:00) 2.2 (00:00) 8.3 6.94 (15:50) 5 (21:10) 0 0 0 0 0
24-03-2019 14.8 (17:00) 4 (00:00) 9.4 11.39 (12:20) 6.11 (11:30) 0 0 0 0 0
23-03-2019 12.9 (13:50) 3.8 (00:00) 8.3 10.28 (12:40) 6.39 (15:40) 0 0 0 0 0
22-03-2019 10.5 (16:20) 0.8 (00:00) 5.7 8.61 (10:00) 5 (14:50) 0 0 0 0 0
21-03-2019 8.8 (18:00) -1.1 (-00:0) 3.9 6.94 (11:30) 5 (19:30) 0 0 0 0 0

Gráficas

Temp. máximas Temp. mínimas Temp. medias Precipitaciones Rachas de viento máximas Velocidades máximas media en intervalos de 10 minutos

Datos horarios

Fecha y hora oficial Temperatura (ºC) Velocidad del viento (km/h) Dirección del viento Racha (km/h) Dirección de racha Precipitación (mm) Presión (hPa) Tendencia (hPa) Humedad (%)
2019-04-19 23:00:00 5.6 9 Este 31 Este 0 -- -- 91
2019-04-19 22:00:00 5.7 8 Este 22 Nordeste 0 -- -- 88
2019-04-19 21:00:00 5.8 7 Nordeste 21 Norte 0 -- -- 88
2019-04-19 20:00:00 5.9 11 Nordeste 48 Este 0 -- -- 88
2019-04-19 19:00:00 6 31 Este 65 Este 0.2 -- -- 89
2019-04-19 18:00:00 6 25 Este 53 Este 0 -- -- 99
2019-04-19 17:00:00 5.9 18 Este 48 Este 0 -- -- 99
2019-04-19 16:00:00 5.9 27 Este 53 Este 0 -- -- 99
2019-04-19 15:00:00 6 22 Este 53 Este 0 -- -- 99
2019-04-19 14:00:00 6.3 29 Este 52 Este 0 -- -- 98
2019-04-19 13:00:00 6.1 17 Este 32 Este 0.4 -- -- 99
2019-04-19 12:00:00 5.2 6 Noroeste 11 Noroeste 3 -- -- 98
2019-04-19 11:00:00 5 5 Norte 8 Norte 3.8 -- -- 98
2019-04-19 10:00:00 4.8 3 Noroeste 4 Noroeste 2.8 -- -- 98
2019-04-19 09:00:00 4.5 2 Oeste 5 Noroeste 2.6 -- -- 98
2019-04-19 08:00:00 4.4 0 Calma 5 Este 3.2 -- -- 98
2019-04-19 07:00:00 4.2 3 Nordeste 5 Nordeste 2 -- -- 98
2019-04-19 06:00:00 3.8 2 Noroeste 4 Noroeste 2.2 -- -- 98
2019-04-19 05:00:00 3.7 2 Oeste 5 Oeste 2 -- -- 98
2019-04-19 04:00:00 3.4 2 Noroeste 5 Oeste 2.2 -- -- 97
2019-04-19 03:00:00 3.4 2 Noroeste 10 Noroeste 2.4 -- -- 96
2019-04-19 02:00:00 3.7 5 Norte 11 Oeste 3 -- -- 94
2019-04-19 01:00:00 3.5 7 Oeste 20 Sudoeste 3.4 -- -- 93
2019-04-19 00:00:00 3.3 6 Oeste 13 Noroeste 2.4 -- -- 97
2019-04-18 23:00:00 3.3 3 Este 9 Noroeste 2.6 -- -- 97
2019-04-18 22:00:00 3.3 3 Noroeste 14 Sur 3 -- -- 95
2019-04-18 21:00:00 3.8 7 Sur 30 Sudoeste 3.6 -- -- 90
2019-04-18 20:00:00 3.2 13 Sudoeste 28 Sudoeste 3.4 -- -- 90
2019-04-18 19:00:00 4 18 Sudoeste 32 Sudoeste 3.8 -- -- 89
2019-04-18 18:00:00 5.7 12 Sudoeste 29 Este 4.4 -- -- 93
2019-04-18 17:00:00 5.8 14 Este 24 Este 0.6 -- -- 96
2019-04-18 16:00:00 5.9 10 Sudeste 16 Sudeste 0.4 -- -- 93
2019-04-18 15:00:00 6.6 11 Sudeste 16 Sudeste 0 -- -- 86
2019-04-18 14:00:00 6.6 5 Sudeste 15 Sudeste 0 -- -- 85
2019-04-18 13:00:00 7 7 Este 18 Este 0 -- -- 78
2019-04-18 12:00:00 7.5 14 Sudeste 21 Este 0 -- -- 73
2019-04-18 11:00:00 8.4 10 Este 19 Este 0 -- -- 68
2019-04-18 10:00:00 7 2 Noroeste 15 Oeste 0 -- -- 68
2019-04-18 09:00:00 6.8 9 Oeste 13 Oeste 0 -- -- 63
2019-04-18 08:00:00 5.4 7 Noroeste 19 Sudeste 0 -- -- 76
2019-04-18 07:00:00 8.5 9 Sudeste 28 Sur 0 -- -- 49
2019-04-18 06:00:00 8.8 13 Sur 25 Sur 0 -- -- 47
2019-04-18 05:00:00 8.2 13 Sur 24 Sur 0 -- -- 45
2019-04-18 04:00:00 7.7 12 Sur 28 Sudeste 0 -- -- 45
2019-04-18 03:00:00 7.1 15 Sur 37 Sudeste 0 -- -- 56
2019-04-18 02:00:00 7.2 21 Sudeste 30 Sudeste 0 -- -- 67
2019-04-18 01:00:00 6.3 10 Sudeste 23 Sudeste 0 -- -- 90
2019-04-18 00:00:00 8.1 13 Sudeste 28 Sudeste 0 -- -- 78
2019-04-17 23:00:00 9.8 10 Sur 24 Sur 0 -- -- 66
2019-04-17 22:00:00 9.3 10 Sudeste 30 Sur 0 -- -- 68
2019-04-17 21:00:00 10.2 15 Sur 31 Sur 0 -- -- 62
2019-04-17 20:00:00 10.6 19 Sur 29 Sur 0 -- -- 67
2019-04-17 19:00:00 11.4 18 Sudeste 31 Sur 0 -- -- 64
2019-04-17 18:00:00 11.5 23 Sudeste 34 Sudeste 0 -- -- 66
2019-04-17 17:00:00 13.6 21 Sudeste 36 Sudeste 0 -- -- 60
2019-04-17 16:00:00 13.1 18 Sudeste 33 Sudeste 0 -- -- 60
2019-04-17 15:00:00 13.2 24 Sudeste 36 Sudeste 0 -- -- 60
2019-04-17 14:00:00 13.7 21 Sudeste 37 Sudeste 0 -- -- 61
2019-04-17 13:00:00 11.3 22 Sudeste 33 Sudeste 0 -- -- 71
2019-04-17 12:00:00 10.4 21 Sudeste 40 Sudeste 0 -- -- 73
2019-04-17 11:00:00 9.8 24 Sudeste 39 Sudeste 0 -- -- 73
2019-04-17 10:00:00 7.3 24 Sudeste 39 Sudeste 0 -- -- 75
2019-04-17 09:00:00 5.8 25 Sur 40 Sudeste 0 -- -- 78
2019-04-17 08:00:00 5.9 23 Sur 38 Sudeste 0 -- -- 77
2019-04-17 07:00:00 5.3 19 Sur 32 Sudeste 0 -- -- 81
2019-04-17 06:00:00 5.3 21 Sur 33 Sur 0 -- -- 85
2019-04-17 05:00:00 4.6 19 Sudeste 31 Sudeste 0 -- -- 92
2019-04-17 04:00:00 4.7 18 Sudeste 35 Sur 0 -- -- 94
2019-04-17 03:00:00 5.2 24 Sudeste 38 Sudeste 0 -- -- 93
2019-04-17 02:00:00 5.3 28 Sur 53 Sudeste 0 -- -- 97
2019-04-17 01:00:00 5.4 27 Sudeste 40 Sur 0 -- -- 95
2019-04-17 00:00:00 6 28 Sur 40 Sur 0 -- -- 91
2019-04-16 23:00:00 6.3 23 Sur 41 Sur 0 -- -- 92
2019-04-16 22:00:00 7.1 21 Sur 35 Sur 0 -- -- 90
2019-04-16 21:00:00 8.7 16 Sudeste 30 Sudeste 0 -- -- 83
2019-04-16 20:00:00 10.6 19 Sudeste 30 Sudeste 0 -- -- 75
2019-04-16 19:00:00 12.5 21 Sudeste 33 Sudeste 0 -- -- 67
2019-04-16 18:00:00 14.2 20 Sudeste 36 Sudeste 0 -- -- 58
2019-04-16 17:00:00 15.2 13 Sudeste 30 Sudeste 0 -- -- 37
2019-04-16 16:00:00 14.9 8 Este 28 Este 0 -- -- 35
2019-04-16 15:00:00 14.1 7 Sudeste 22 Sudeste 0 -- -- 41
2019-04-16 14:00:00 12.8 10 Este 18 Este 0 -- -- 49
2019-04-16 13:00:00 11.1 7 Sudoeste 15 Norte 0 -- -- 60
2019-04-16 12:00:00 9.7 3 Nordeste 15 Nordeste 0 -- -- 71
2019-04-16 11:00:00 8.4 7 Norte 19 Noroeste 0 -- -- 75
2019-04-16 10:00:00 7.1 12 Noroeste 22 Noroeste 0 -- -- 79
2019-04-16 09:00:00 5.4 12 Noroeste 16 Noroeste 0 -- -- 89
2019-04-16 08:00:00 3.6 8 Noroeste 25 Noroeste 0 -- -- 92
2019-04-16 07:00:00 3.7 18 Oeste 25 Noroeste 0 -- -- 88
2019-04-16 06:00:00 4.6 14 Oeste 20 Oeste 0 -- -- 87
2019-04-16 05:00:00 5.7 14 Oeste 23 Oeste 0 -- -- 83
2019-04-16 04:00:00 6 8 Noroeste 17 Noroeste 0 -- -- 92
2019-04-16 03:00:00 7.6 0 Calma 12 Oeste 0 -- -- 91
2019-04-16 02:00:00 8.1 10 Oeste 26 Oeste 0 -- -- 86
2019-04-16 01:00:00 8.7 14 Oeste 29 Oeste 0.8 -- -- 79
2019-04-16 00:00:00 10.5 17 Oeste 29 Oeste 0 -- -- 62
2019-04-15 23:00:00 8.9 12 Oeste 49 Sudoeste 2.8 -- -- 76
2019-04-15 22:00:00 9.6 6 Sudoeste 18 Oeste 0.4 -- -- 85
2019-04-15 21:00:00 9.4 11 Sudeste 21 Sudeste 0 -- -- 82
2019-04-15 20:00:00 11.5 14 Sudeste 26 Sudeste 0 -- -- 74
2019-04-15 19:00:00 12.8 19 Sudeste 32 Sudeste 0 -- -- 70
2019-04-15 18:00:00 13.8 17 Sudeste 35 Sudeste 0 -- -- 66
2019-04-15 17:00:00 15.2 17 Sudeste 37 Sudeste 0 -- -- 61
2019-04-15 16:00:00 15.8 20 Sudeste 34 Sudeste 0 -- -- 58
2019-04-15 15:00:00 15.8 20 Sudeste 37 Sudeste 0 -- -- 57
2019-04-15 14:00:00 16.1 23 Sudeste 40 Sur 0 -- -- 59
2019-04-15 13:00:00 15 22 Sudeste 41 Sudeste 0 -- -- 63
2019-04-15 12:00:00 13.7 22 Sudeste 39 Sudeste 0 -- -- 65
2019-04-15 11:00:00 13.2 19 Sudeste 30 Sudeste 0 -- -- 65
2019-04-15 10:00:00 12.2 18 Sudeste 39 Sudeste 0 -- -- 65
2019-04-15 09:00:00 11.9 15 Sudeste 28 Sudeste 0 -- -- 66
2019-04-15 08:00:00 10.8 11 Sudeste 20 Sudeste 0 -- -- 71
2019-04-15 07:00:00 9.9 8 Sur 13 Sur 0 -- -- 74
2019-04-15 06:00:00 10.6 9 Sur 16 Sur 0 -- -- 72
2019-04-15 05:00:00 10.4 8 Sur 13 Sur 0 -- -- 73
2019-04-15 04:00:00 10.2 6 Sur 8 Sur 0 -- -- 73
2019-04-15 03:00:00 10 4 Sur 7 Sur 0 -- -- 74
2019-04-15 02:00:00 10.1 2 Sudeste 11 Oeste 0 -- -- 73
2019-04-15 01:00:00 10.8 10 Oeste 14 Oeste 0 -- -- 71
2019-04-15 00:00:00 11.2 8 Oeste 13 Oeste 0 -- -- 69
2019-04-14 23:00:00 11.8 8 Oeste 18 Noroeste 0 -- -- 69
2019-04-14 22:00:00 13 10 Noroeste 14 Oeste 0 -- -- 68
2019-04-14 21:00:00 14.9 8 Norte 19 Norte 0 -- -- 60
2019-04-14 20:00:00 17 9 Norte 19 Noroeste 0 -- -- 49
2019-04-14 19:00:00 18.4 12 Oeste 26 Noroeste 0 -- -- 43
2019-04-14 18:00:00 17.8 12 Oeste 25 Oeste 0 -- -- 43
2019-04-14 17:00:00 18.7 4 Noroeste 21 Noroeste 0 -- -- 42
2019-04-14 16:00:00 17.2 10 Noroeste 27 Noroeste 0 -- -- 43
2019-04-14 15:00:00 16.7 14 Noroeste 28 Noroeste 0 -- -- 45
2019-04-14 14:00:00 16.2 16 Noroeste 27 Norte 0 -- -- 47
2019-04-14 13:00:00 15 11 Noroeste 27 Noroeste 0 -- -- 47
2019-04-14 12:00:00 14.1 13 Oeste 31 Oeste 0 -- -- 48
2019-04-14 11:00:00 13.1 18 Noroeste 35 Noroeste 0 -- -- 48
2019-04-14 10:00:00 11.7 22 Noroeste 39 Oeste 0 -- -- 52
2019-04-14 09:00:00 10 25 Oeste 43 Oeste 0 -- -- 46
2019-04-14 08:00:00 8.6 20 Oeste 33 Oeste 0 -- -- 42
2019-04-14 07:00:00 8.6 22 Oeste 34 Oeste 0 -- -- 41
2019-04-14 06:00:00 8.5 21 Oeste 30 Oeste 0 -- -- 32
2019-04-14 05:00:00 8 20 Oeste 30 Oeste 0 -- -- 34
2019-04-14 04:00:00 8.5 21 Oeste 40 Oeste 0 -- -- 35
2019-04-14 03:00:00 9.3 21 Oeste 41 Oeste 0 -- -- 27
2019-04-14 02:00:00 10 21 Oeste 37 Oeste 0 -- -- 21
2019-04-14 01:00:00 9.6 15 Oeste 39 Oeste 0 -- -- 24
2019-04-14 00:00:00 9.7 24 Oeste 37 Oeste 0 -- -- 28
2019-04-13 23:00:00 9 18 Oeste 36 Oeste 0 -- -- 32
2019-04-13 22:00:00 8.8 6 Oeste 10 Oeste 0 -- -- 28
2019-04-13 21:00:00 10 2 Oeste 10 Nordeste 0 -- -- 27
2019-04-13 20:00:00 12.4 6 Norte 17 Norte 0 -- -- 23
2019-04-13 19:00:00 14.2 11 Norte 24 Noroeste 0 -- -- 21
2019-04-13 18:00:00 15.1 9 Noroeste 23 Noroeste 0 -- -- 19
2019-04-13 17:00:00 14.8 12 Noroeste 25 Noroeste 0 -- -- 23
2019-04-13 16:00:00 14.1 11 Noroeste 26 Oeste 0 -- -- 20
2019-04-13 15:00:00 13.7 12 Norte 23 Noroeste 0 -- -- 18
2019-04-13 14:00:00 12.9 7 Este 20 Nordeste 0 -- -- 19
2019-04-13 13:00:00 11.1 8 Noroeste 23 Noroeste 0 -- -- 21
2019-04-13 12:00:00 9.7 11 Noroeste 22 Noroeste 0 -- -- 25
2019-04-13 11:00:00 7.8 17 Noroeste 28 Noroeste 0 -- -- 27
2019-04-13 10:00:00 6.1 14 Noroeste 29 Noroeste 0 -- -- 28
2019-04-13 09:00:00 4.2 18 Noroeste 29 Oeste 0 -- -- 32
2019-04-13 08:00:00 2.2 17 Oeste 24 Oeste 0 -- -- 38
2019-04-13 07:00:00 1 16 Oeste 28 Oeste 0 -- -- 44
2019-04-13 06:00:00 2 18 Oeste 32 Oeste 0 -- -- 45
2019-04-13 05:00:00 1.7 10 Noroeste 22 Oeste 0 -- -- 55
2019-04-13 04:00:00 4 17 Oeste 27 Oeste 0 -- -- 49
2019-04-13 03:00:00 3.6 14 Oeste 21 Oeste 0 -- -- 61
2019-04-13 02:00:00 2.8 9 Noroeste 17 Oeste 0 -- -- 63
2019-04-13 01:00:00 3.7 15 Oeste 21 Oeste 0 -- -- 66
2019-04-13 00:00:00 4.1 14 Oeste 20 Noroeste 0 -- -- 58
2019-04-12 23:00:00 4.8 10 Noroeste 19 Oeste 0 -- -- 54
2019-04-12 22:00:00 5.5 14 Oeste 18 Oeste 0 -- -- 48
2019-04-12 21:00:00 6.1 9 Oeste 21 Norte 0 -- -- 52
2019-04-12 20:00:00 8.8 12 Norte 24 Noroeste 0 -- -- 41
2019-04-12 19:00:00 10 19 Noroeste 31 Noroeste 0 -- -- 43
2019-04-12 18:00:00 10.1 17 Noroeste 29 Norte 0 -- -- 47
2019-04-12 17:00:00 10.1 14 Norte 25 Noroeste 0 -- -- 48
2019-04-12 16:00:00 9 14 Noroeste 31 Noroeste 0 -- -- 49
2019-04-12 15:00:00 8.1 10 Noroeste 26 Oeste 0 -- -- 54
2019-04-12 14:00:00 6.9 15 Noroeste 27 Noroeste 0 -- -- 62
2019-04-12 13:00:00 5.3 19 Norte 35 Noroeste 0 -- -- 67
2019-04-12 12:00:00 3.8 23 Noroeste 39 Noroeste 0 -- -- 73
2019-04-12 11:00:00 2.9 25 Noroeste 38 Noroeste 0 -- -- 76
2019-04-12 10:00:00 1.8 23 Noroeste 38 Noroeste 0 -- -- 83
2019-04-12 09:00:00 1.2 24 Noroeste 36 Noroeste 0 -- -- 85
2019-04-12 08:00:00 0.8 23 Noroeste 39 Noroeste 0 -- -- 86
2019-04-12 07:00:00 0.7 21 Noroeste 34 Noroeste 0 -- -- 85
2019-04-12 06:00:00 0.7 24 Noroeste 40 Noroeste 0 -- -- 84
2019-04-12 05:00:00 0.5 21 Noroeste 36 Noroeste 0 -- -- 86
2019-04-12 04:00:00 0.1 19 Noroeste 28 Oeste 0 -- -- 87
2019-04-12 03:00:00 -0.1 14 Noroeste 38 Noroeste 0 -- -- 86
2019-04-12 02:00:00 0.8 22 Noroeste 32 Oeste 0 -- -- 81
2019-04-12 01:00:00 1.4 24 Noroeste 37 Noroeste 0 -- -- 86
2019-04-12 00:00:00 2 22 Noroeste 35 Noroeste 0 -- -- 82
2019-04-11 23:00:00 2.6 18 Noroeste 34 Noroeste 0 -- -- 79
2019-04-11 22:00:00 3.5 16 Norte 31 Noroeste 0 -- -- 77
2019-04-11 21:00:00 4.5 17 Noroeste 34 Noroeste 0 -- -- 67
2019-04-11 20:00:00 5.7 25 Noroeste 40 Noroeste 0 -- -- 56
2019-04-11 19:00:00 7.6 26 Noroeste 37 Noroeste 0 -- -- 55
2019-04-11 18:00:00 8.3 24 Noroeste 38 Noroeste 0 -- -- 52
2019-04-11 17:00:00 7.9 20 Noroeste 42 Noroeste 0 -- -- 51
2019-04-11 16:00:00 7.6 26 Noroeste 43 Noroeste 0 -- -- 53
2019-04-11 15:00:00 7.4 20 Norte 58 Norte 0 -- -- 50
2019-04-11 14:00:00 6.6 26 Noroeste 47 Noroeste 0 -- -- 58
2019-04-11 13:00:00 4.8 26 Noroeste 41 Noroeste 0 -- -- 69
2019-04-11 12:00:00 3.4 27 Noroeste 41 Noroeste 0 -- -- 74
2019-04-11 11:00:00 2.8 25 Noroeste 44 Norte 0 -- -- 77
2019-04-11 10:00:00 1.4 24 Noroeste 42 Noroeste 0 -- -- 83
2019-04-11 09:00:00 0.8 24 Noroeste 39 Noroeste 0 -- -- 85
2019-04-11 08:00:00 0.8 25 Noroeste 37 Noroeste 0 -- -- 85
2019-04-11 07:00:00 0.8 20 Noroeste 36 Norte 0 -- -- 86
2019-04-11 06:00:00 1 23 Noroeste 40 Noroeste 0 -- -- 87
2019-04-11 05:00:00 1 24 Noroeste 46 Noroeste 0 -- -- 86
2019-04-11 04:00:00 1.1 24 Noroeste 38 Noroeste 0 -- -- 86
2019-04-11 03:00:00 0.7 22 Noroeste 33 Noroeste 0 -- -- 88
2019-04-11 02:00:00 1.3 21 Noroeste 31 Noroeste 0 -- -- 88
2019-04-11 01:00:00 1.9 17 Noroeste 28 Noroeste 0 -- -- 88
2019-04-11 00:00:00 2.7 17 Noroeste 34 Noroeste 0 -- -- 85
2019-04-10 23:00:00 2.9 18 Noroeste 33 Noroeste 0 -- -- 82
2019-04-10 22:00:00 3 19 Noroeste 32 Noroeste 0 -- -- 81
2019-04-10 21:00:00 3.4 19 Noroeste 28 Noroeste 0 -- -- 77
2019-04-10 20:00:00 4.1 17 Noroeste 33 Oeste 0 -- -- 76
2019-04-10 19:00:00 4.3 21 Noroeste 43 Noroeste 0.2 -- -- 77
2019-04-10 18:00:00 5.2 17 Noroeste 29 Noroeste 0 -- -- 71
2019-04-10 17:00:00 6.1 23 Noroeste 41 Noroeste 0.2 -- -- 56
2019-04-10 16:00:00 7 22 Noroeste 40 Noroeste 0 -- -- 58
2019-04-10 15:00:00 4.7 19 Oeste 49 Noroeste 0 -- -- 71
2019-04-10 14:00:00 5.2 23 Oeste 42 Noroeste 0 -- -- 59
2019-04-10 13:00:00 5.4 21 Oeste 42 Noroeste 0 -- -- 60
2019-04-10 12:00:00 4.3 26 Oeste 43 Noroeste 0 -- -- 75
2019-04-10 11:00:00 4.2 33 Oeste 46 Oeste 0 -- -- 69
2019-04-10 10:00:00 3.5 27 Noroeste 42 Oeste 0 -- -- 74
2019-04-10 09:00:00 2.2 24 Noroeste 37 Noroeste 0 -- -- 81
2019-04-10 08:00:00 0.7 19 Oeste 32 Oeste 0 -- -- 86
2019-04-10 07:00:00 1.1 25 Oeste 39 Oeste 0 -- -- 84
2019-04-10 06:00:00 1.2 23 Noroeste 37 Oeste 0 -- -- 86
2019-04-10 05:00:00 1.2 20 Oeste 37 Noroeste 0 -- -- 85
2019-04-10 04:00:00 1.5 27 Oeste 40 Oeste 0 -- -- 84
2019-04-10 03:00:00 1.5 24 Oeste 45 Oeste 0 -- -- 83
2019-04-10 02:00:00 1.8 32 Oeste 49 Oeste 0 -- -- 81
2019-04-10 01:00:00 2 33 Oeste 50 Oeste 0 -- -- 79
2019-04-10 00:00:00 2.1 26 Oeste 39 Oeste 0 -- -- 80
2019-04-09 23:00:00 2.6 31 Oeste 47 Oeste 0 -- -- 73
2019-04-09 22:00:00 2.2 33 Oeste 49 Noroeste 0 -- -- 76
2019-04-09 21:00:00 1.6 40 Oeste 57 Oeste 0 -- -- 79
2019-04-09 20:00:00 2.2 31 Oeste 53 Oeste 0 -- -- 85
2019-04-09 19:00:00 3.1 32 Oeste 48 Oeste 0.8 -- -- 86
2019-04-09 18:00:00 4.6 26 Oeste 51 Sudoeste 0 -- -- 80
2019-04-09 17:00:00 4.3 27 Oeste 58 Oeste 1 -- -- 85
2019-04-09 16:00:00 6 20 Oeste 41 Oeste 0 -- -- 70
2019-04-09 15:00:00 4 15 Oeste 44 Oeste 0.2 -- -- 86
2019-04-09 14:00:00 5.4 24 Oeste 53 Oeste 0 -- -- 69
2019-04-09 13:00:00 5.3 26 Oeste 57 Oeste 0 -- -- 68
2019-04-09 12:00:00 4.8 28 Oeste 49 Oeste 0 -- -- 70
2019-04-09 11:00:00 3.6 26 Oeste 49 Oeste 0 -- -- 73
2019-04-09 10:00:00 3.4 21 Oeste 44 Oeste 0 -- -- 77
2019-04-09 09:00:00 3 14 Oeste 33 Oeste 0 -- -- 79
2019-04-09 08:00:00 2.1 7 Oeste 33 Oeste 0 -- -- 80
2019-04-09 07:00:00 2 15 Oeste 33 Oeste 0 -- -- 84
2019-04-09 06:00:00 2.2 21 Oeste 40 Oeste 0 -- -- 81
2019-04-09 05:00:00 2.4 21 Oeste 32 Oeste 0 -- -- 83
2019-04-09 04:00:00 2.3 12 Noroeste 30 Noroeste 0 -- -- 84
2019-04-09 03:00:00 3.2 18 Oeste 34 Oeste 0 -- -- 78
2019-04-09 02:00:00 3.9 12 Oeste 25 Oeste 0 -- -- 75
2019-04-09 01:00:00 4.6 13 Oeste 19 Oeste 0 -- -- 73
2019-04-09 00:00:00 5.4 12 Oeste 21 Oeste 0 -- -- 75
2019-04-08 23:00:00 5.8 9 Oeste 19 Oeste 0 -- -- 75
2019-04-08 22:00:00 6.1 8 Oeste 22 Oeste 0 -- -- 73
2019-04-08 21:00:00 6.8 11 Oeste 21 Oeste 0 -- -- 70
2019-04-08 20:00:00 7.9 12 Oeste 31 Oeste 0 -- -- 66
2019-04-08 19:00:00 9.4 13 Oeste 37 Oeste 0 -- -- 58
2019-04-08 18:00:00 9.4 20 Oeste 47 Oeste 0 -- -- 62
2019-04-08 17:00:00 8.8 21 Oeste 49 Oeste 0 -- -- 76
2019-04-08 16:00:00 7.9 17 Sudoeste 32 Oeste 0.2 -- -- 82
2019-04-08 15:00:00 8.8 21 Oeste 39 Oeste 0 -- -- 75
2019-04-08 14:00:00 8.2 26 Oeste 45 Oeste 0 -- -- 75
2019-04-08 13:00:00 8.6 18 Oeste 41 Oeste 0 -- -- 76
2019-04-08 12:00:00 6.6 8 Oeste 33 Oeste 0 -- -- 81
2019-04-08 11:00:00 5.9 15 Oeste 41 Oeste 0 -- -- 84
2019-04-08 10:00:00 5.6 17 Oeste 40 Oeste 0 -- -- 85
2019-04-08 09:00:00 5.1 6 Oeste 39 Oeste 0 -- -- 86
2019-04-08 08:00:00 4.5 25 Oeste 54 Oeste 0 -- -- 87
2019-04-08 07:00:00 4.3 20 Oeste 48 Oeste 0 -- -- 89
2019-04-08 06:00:00 4.1 23 Oeste 49 Sudoeste 0 -- -- 92
2019-04-08 05:00:00 3.9 22 Sudoeste 40 Sudoeste 0 -- -- 91
2019-04-08 04:00:00 3.5 15 Sudoeste 37 Sudoeste 0 -- -- 92
2019-04-08 03:00:00 3.1 23 Sudoeste 37 Sudoeste 0 -- -- 90
2019-04-08 02:00:00 2.8 15 Sudoeste 36 Sudoeste 0 -- -- 86
2019-04-08 01:00:00 2.6 5 Sudeste 21 Sudoeste 0 -- -- 82
2019-04-08 00:00:00 2.6 9 Oeste 40 Oeste 0 -- -- 82
2019-04-07 23:00:00 3 30 Sudoeste 53 Sudoeste 0 -- -- 79
2019-04-07 22:00:00 3.6 5 Noroeste 17 Oeste 0 -- -- 70
2019-04-07 21:00:00 4 10 Oeste 28 Oeste 0 -- -- 66
2019-04-07 20:00:00 4.8 14 Oeste 32 Oeste 0 -- -- 61
2019-04-07 19:00:00 5.9 15 Oeste 38 Noroeste 0 -- -- 56
2019-04-07 18:00:00 5.5 24 Oeste 36 Oeste 0 -- -- 56
2019-04-07 17:00:00 5.3 20 Noroeste 41 Noroeste 0 -- -- 59
2019-04-07 16:00:00 5.2 22 Oeste 38 Oeste 0 -- -- 61
2019-04-07 15:00:00 4.1 21 Oeste 37 Oeste 0 -- -- 63
2019-04-07 14:00:00 3.5 21 Noroeste 35 Oeste 0 -- -- 66
2019-04-07 13:00:00 2.7 21 Noroeste 42 Oeste 0 -- -- 70
2019-04-07 12:00:00 2.3 30 Noroeste 46 Noroeste 0 -- -- 80
2019-04-07 11:00:00 1.5 32 Noroeste 46 Oeste 0 -- -- 76
2019-04-07 10:00:00 0.6 22 Noroeste 46 Oeste 0 -- -- 78
2019-04-07 09:00:00 0.1 26 Oeste 43 Oeste 0 -- -- 82
2019-04-07 08:00:00 -1.1 13 Noroeste 26 Oeste 0 -- -- 88
2019-04-07 07:00:00 -0.8 13 Noroeste 28 Oeste 0 -- -- 86
2019-04-07 06:00:00 -0.5 23 Oeste 40 Oeste 0 -- -- 84
2019-04-07 05:00:00 -0.3 22 Oeste 40 Oeste 0 -- -- 81
2019-04-07 04:00:00 -0.3 24 Oeste 51 Oeste 0 -- -- 85
2019-04-07 03:00:00 0 28 Oeste 45 Oeste 0 -- -- 85
2019-04-07 02:00:00 0 18 Oeste 44 Oeste 0 -- -- 89
2019-04-07 01:00:00 0.1 18 Oeste 39 Oeste 0 -- -- 89
2019-04-07 00:00:00 -0.2 22 Oeste 40 Sudoeste 0 -- -- 90
2019-04-06 23:00:00 -0.4 21 Oeste 40 Sudoeste 0.2 -- -- 91
2019-04-06 22:00:00 -0.3 27 Oeste 52 Oeste 0.2 -- -- 92
2019-04-06 21:00:00 1.5 5 Sudoeste 41 Oeste 0 -- -- 80
2019-04-06 20:00:00 2 10 Oeste 27 Oeste 0.2 -- -- 79
2019-04-06 19:00:00 2.7 9 Oeste 35 Oeste 0 -- -- 76
2019-04-06 18:00:00 2.6 14 Oeste 45 Oeste 0 -- -- 78
2019-04-06 17:00:00 1.6 26 Oeste 49 Oeste 0 -- -- 80
2019-04-06 16:00:00 1.6 30 Oeste 52 Oeste 0.2 -- -- 82
2019-04-06 15:00:00 1.2 17 Sudoeste 37 Sudoeste 0.4 -- -- 86
2019-04-06 14:00:00 2.1 9 Sudoeste 33 Oeste 0.2 -- -- 82
2019-04-06 13:00:00 1.7 13 Oeste 36 Oeste 0 -- -- 80
2019-04-06 12:00:00 1 10 Oeste 42 Oeste 0 -- -- 82
2019-04-06 11:00:00 -0.7 14 Oeste 48 Oeste 0 -- -- 85
2019-04-06 10:00:00 -0.8 26 Oeste 58 Oeste 0 -- -- 82
2019-04-06 09:00:00 -0.8 26 Oeste 39 Oeste 0 -- -- 83
2019-04-06 08:00:00 -1.2 9 Oeste 33 Oeste 0 -- -- 84
2019-04-06 07:00:00 -1.1 25 Oeste 48 Oeste 0 -- -- 83
2019-04-06 06:00:00 -1 21 Oeste 41 Oeste 0 -- -- 84
2019-04-06 05:00:00 -0.8 3 Oeste 32 Oeste 0 -- -- 85
2019-04-06 04:00:00 -0.7 21 Oeste 49 Oeste 0 -- -- 84
2019-04-06 03:00:00 -0.8 29 Oeste 46 Oeste 0 -- -- 84
2019-04-06 02:00:00 -1 23 Oeste 46 Oeste 0 -- -- 90
2019-04-06 01:00:00 -0.8 28 Oeste 53 Oeste 0 -- -- 85
2019-04-06 00:00:00 -1 26 Oeste 45 Oeste 0 -- -- 85
2019-04-05 23:00:00 -0.9 29 Oeste 58 Oeste 0 -- -- 85
2019-04-05 22:00:00 -0.2 20 Oeste 55 Oeste 0 -- -- 87
2019-04-05 21:00:00 -0.3 32 Oeste 63 Oeste 0.6 -- -- 87
2019-04-05 20:00:00 0.7 15 Sudoeste 33 Sudoeste 0 -- -- 91
2019-04-05 19:00:00 1.1 10 Sur 28 Sur 2 -- -- 88
2019-04-05 18:00:00 0.5 14 Sudoeste 32 Sudoeste 2 -- -- 92
2019-04-05 17:00:00 0.9 8 Sur 24 Sudeste 1 -- -- 93
2019-04-05 16:00:00 2 13 Sudeste 24 Sur 0.2 -- -- 94
2019-04-05 15:00:00 1.7 12 Sur 27 Sudeste 1.2 -- -- 89
2019-04-05 14:00:00 3 13 Sur 26 Sudeste 0.2 -- -- 88
2019-04-05 13:00:00 3.4 14 Sur 28 Sur 0 -- -- 81
2019-04-05 12:00:00 2.6 10 Sur 31 Sur 0 -- -- 84
2019-04-05 11:00:00 2 10 Sur 36 Sur 0 -- -- 84
2019-04-05 10:00:00 2 15 Sur 39 Sur 0 -- -- 80
2019-04-05 09:00:00 1.6 6 Sudeste 23 Sudeste 0 -- -- 81
2019-04-05 08:00:00 0.9 7 Sudeste 26 Sur 0 -- -- 82
2019-04-05 07:00:00 1.4 11 Sur 36 Sur 0 -- -- 81
2019-04-05 06:00:00 1.9 9 Sur 29 Sur 0 -- -- 83
2019-04-05 05:00:00 2.3 10 Sudeste 27 Sur 0 -- -- 87
2019-04-05 04:00:00 2.7 13 Sur 38 Sudeste 0 -- -- 86
2019-04-05 03:00:00 2.4 17 Sudeste 33 Sur 0 -- -- 92
2019-04-05 02:00:00 1.3 8 Sudeste 17 Sudeste 0 -- -- 90
2019-04-05 01:00:00 1.1 12 Sudeste 30 Sudeste 0 -- -- 83
2019-04-05 00:00:00 1.8 3 Sur 13 Sur 0 -- -- 49
2019-04-04 23:00:00 2.4 7 Sur 12 Sudeste 0 -- -- 46
2019-04-04 22:00:00 3.9 8 Sur 21 Sur 0 -- -- 41
2019-04-04 21:00:00 4.5 6 Sur 22 Sur 0 -- -- 40
2019-04-04 20:00:00 5.8 13 Sur 26 Sur 0 -- -- 35
2019-04-04 19:00:00 7.8 7 Sur 23 Sur 0 -- -- 35
2019-04-04 18:00:00 8 10 Sur 27 Sur 0 -- -- 32
2019-04-04 17:00:00 8.3 11 Sur 26 Sur 0 -- -- 32
2019-04-04 16:00:00 7.7 12 Sudeste 30 Sudeste 0 -- -- 34
2019-04-04 15:00:00 6.2 9 Sudeste 31 Este 0 -- -- 48
2019-04-04 14:00:00 5.6 8 Sudeste 22 Este 0 -- -- 48
2019-04-04 13:00:00 4.5 8 Oeste 24 Noroeste 0 -- -- 41
2019-04-04 12:00:00 2.8 12 Noroeste 25 Noroeste 0 -- -- 44
2019-04-04 11:00:00 1.3 13 Noroeste 24 Oeste 0 -- -- 51
2019-04-04 10:00:00 -0.1 14 Noroeste 32 Noroeste 0 -- -- 55
2019-04-04 09:00:00 -1.8 21 Oeste 29 Oeste 0 -- -- 61
2019-04-04 08:00:00 -2.7 18 Noroeste 35 Oeste 0 -- -- 66
2019-04-04 07:00:00 -2.5 24 Oeste 36 Oeste 0 -- -- 65
2019-04-04 06:00:00 -2.1 25 Oeste 39 Oeste 0 -- -- 69
2019-04-04 05:00:00 -1.6 26 Oeste 35 Oeste 0 -- -- 70
2019-04-04 04:00:00 -1.2 24 Oeste 40 Oeste 0 -- -- 77
2019-04-04 03:00:00 -1.2 17 Noroeste 24 Noroeste 0 -- -- 88
2019-04-04 02:00:00 -1.1 10 Noroeste 15 Oeste 0 -- -- 91
2019-04-04 01:00:00 -0.9 11 Noroeste 20 Noroeste 0 -- -- 94
2019-04-04 00:00:00 -0.5 13 Noroeste 23 Noroeste 0 -- -- 91
2019-04-03 23:00:00 0.5 17 Noroeste 33 Noroeste 0 -- -- 89
2019-04-03 22:00:00 3.9 21 Noroeste 32 Noroeste 0 -- -- 63
2019-04-03 21:00:00 3.7 15 Noroeste 22 Noroeste 0 -- -- 73
2019-04-03 20:00:00 4 13 Noroeste 21 Noroeste 0 -- -- 78
2019-04-03 19:00:00 4.4 12 Noroeste 34 Noroeste 0 -- -- 82
2019-04-03 18:00:00 8.2 11 Oeste 32 Oeste 0 -- -- 57
2019-04-03 17:00:00 8.5 23 Oeste 37 Oeste 0 -- -- 58
2019-04-03 16:00:00 10.3 10 Oeste 33 Oeste 0 -- -- 56
2019-04-03 15:00:00 9 19 Oeste 38 Sudoeste 0 -- -- 63
2019-04-03 14:00:00 9.7 13 Oeste 38 Sudoeste 0 -- -- 60
2019-04-03 13:00:00 8 7 Oeste 40 Oeste 0 -- -- 65
2019-04-03 12:00:00 7.4 11 Sudoeste 28 Sudoeste 0 -- -- 68
2019-04-03 11:00:00 7.7 12 Sudoeste 28 Oeste 0 -- -- 70
2019-04-03 10:00:00 6.5 7 Sudoeste 28 Sudoeste 0 -- -- 69
2019-04-03 09:00:00 5.5 9 Oeste 22 Noroeste 0 -- -- 67
2019-04-03 08:00:00 4.1 8 Oeste 17 Oeste 0 -- -- 76
2019-04-03 07:00:00 4.1 10 Sudoeste 19 Oeste 0 -- -- 85
2019-04-03 06:00:00 4.8 13 Oeste 26 Oeste 0 -- -- 86
2019-04-03 05:00:00 5.3 15 Oeste 34 Oeste 0 -- -- 85
2019-04-03 04:00:00 5.4 22 Oeste 41 Oeste 0 -- -- 85
2019-04-03 03:00:00 6.3 26 Oeste 45 Oeste 0 -- -- 77
2019-04-03 02:00:00 5.9 26 Oeste 42 Oeste 0 -- -- 79
2019-04-03 01:00:00 6.2 27 Oeste 40 Oeste 0 -- -- 75
2019-04-03 00:00:00 6.5 26 Oeste 43 Sudoeste 0 -- -- 72
2019-04-02 23:00:00 6.1 18 Sudoeste 33 Sudoeste 0 -- -- 77
2019-04-02 22:00:00 5.8 16 Oeste 26 Oeste 0 -- -- 81
2019-04-02 21:00:00 5.2 12 Sudoeste 30 Oeste 0.8 -- -- 85
2019-04-02 20:00:00 5 21 Oeste 33 Oeste 0 -- -- 88
2019-04-02 19:00:00 6.1 12 Oeste 25 Oeste 0.4 -- -- 84
2019-04-02 18:00:00 7.9 6 Oeste 15 Sur 0 -- -- 73
2019-04-02 17:00:00 6.2 10 Sur 18 Oeste 1.6 -- -- 81
2019-04-02 16:00:00 8.5 8 Este 16 Este 0.2 -- -- 68
2019-04-02 15:00:00 4.8 11 Noroeste 47 Oeste 6.8 -- -- 84
2019-04-02 14:00:00 9.4 10 Sudeste 19 Sudeste 0 -- -- 77
2019-04-02 13:00:00 9.3 9 Norte 23 Norte 0 -- -- 63
2019-04-02 12:00:00 9.1 10 Norte 21 Oeste 0 -- -- 68
2019-04-02 11:00:00 7.3 9 Noroeste 13 Oeste 0 -- -- 79
2019-04-02 10:00:00 6 9 Noroeste 22 Oeste 0 -- -- 81
2019-04-02 09:00:00 5 14 Oeste 24 Oeste 0.2 -- -- 86
2019-04-02 08:00:00 4 9 Noroeste 15 Noroeste 0 -- -- 93
2019-04-02 07:00:00 4.2 11 Oeste 32 Oeste 0 -- -- 90
2019-04-02 06:00:00 5.2 15 Oeste 35 Sudoeste 0 -- -- 87
2019-04-02 05:00:00 5.2 27 Oeste 42 Oeste 0 -- -- 88
2019-04-02 04:00:00 4.8 17 Sudoeste 39 Sudoeste 0 -- -- 93
2019-04-02 03:00:00 4.9 27 Sudoeste 39 Sudoeste 0 -- -- 93
2019-04-02 02:00:00 4.9 15 Sudoeste 29 Sur 0 -- -- 94
2019-04-02 01:00:00 5.1 10 Sudoeste 22 Sur 0 -- -- 96
2019-04-02 00:00:00 5 3 Sudoeste 8 Sudeste 0 -- -- 98
2019-04-01 23:00:00 5.6 2 Sudeste 6 Este 0.8 -- -- 98
2019-04-01 22:00:00 5.7 6 Sudeste 10 Sudeste 1.4 -- -- 98
2019-04-01 21:00:00 5.9 8 Sudeste 13 Este 0 -- -- 98
2019-04-01 20:00:00 6.2 9 Sudeste 14 Sudeste 0 -- -- 98
2019-04-01 19:00:00 6.7 8 Sudeste 11 Este 0 -- -- 97
2019-04-01 18:00:00 7 6 Sudeste 15 Sudeste 0 -- -- 98
2019-04-01 17:00:00 6 10 Sudeste 23 Sudeste 0.2 -- -- 98
2019-04-01 16:00:00 5.7 14 Sudeste 28 Sudeste 0 -- -- 98
2019-04-01 15:00:00 5.7 13 Sudeste 22 Sudeste 0.8 -- -- 98
2019-04-01 14:00:00 5.4 14 Sudeste 21 Sudeste 0 -- -- 98
2019-04-01 13:00:00 5.7 12 Sudeste 18 Sudeste 0 -- -- 96
2019-04-01 12:00:00 5.7 10 Sudeste 16 Sudeste 0 -- -- 95
2019-04-01 11:00:00 5.3 8 Sudeste 15 Sudeste 0 -- -- 97
2019-04-01 10:00:00 4.6 2 Este 5 Este 0 -- -- 98
2019-04-01 09:00:00 4 2 Noroeste 3 Noroeste 0.2 -- -- 98
2019-04-01 08:00:00 3.9 0 Calma 2 Norte 0.2 -- -- 97
2019-04-01 07:00:00 3.8 0 Calma 2 Noroeste 0.4 -- -- 97
2019-04-01 06:00:00 3.8 0 Calma -- -- 0.8 -- -- 97
2019-04-01 05:00:00 3.8 0 Calma 2 Noroeste 0.4 -- -- 97
2019-04-01 04:00:00 3.6 0 Calma 4 Oeste 0.4 -- -- 97
2019-04-01 03:00:00 3.6 0 Calma 4 Noroeste 0.2 -- -- 97
2019-04-01 02:00:00 3.5 0 Calma 4 Noroeste 0.8 -- -- 97
2019-04-01 01:00:00 3.4 2 Noroeste 5 Este 0.2 -- -- 97
2019-04-01 00:00:00 3.2 0 Calma 4 Norte 0.2 -- -- 97
2019-03-31 23:00:00 3 2 Noroeste 5 Oeste 0.8 -- -- 96
2019-03-31 22:00:00 3 3 Oeste 5 Oeste 1 -- -- 96
2019-03-31 21:00:00 3 3 Noroeste 6 Noroeste 0.2 -- -- 95
2019-03-31 20:00:00 3.1 3 Noroeste 6 Norte 0.2 -- -- 94
2019-03-31 19:00:00 3.2 0 Calma 9 Este 0.4 -- -- 93
2019-03-31 18:00:00 2.9 3 Sudeste 12 Sudeste 1.8 -- -- 92
2019-03-31 17:00:00 3 7 Este 12 Este 1.6 -- -- 94
2019-03-31 16:00:00 2.2 0 Calma 17 Este 3.2 -- -- 94
2019-03-31 15:00:00 2.3 6 Este 19 Este 2.8 -- -- 95
2019-03-31 14:00:00 2.9 9 Este 25 Este 2.6 -- -- 94
2019-03-31 13:00:00 3.8 6 Nordeste 15 Este 2.4 -- -- 95
2019-03-31 12:00:00 3.9 0 Calma 4 Oeste 2.2 -- -- 94
2019-03-31 11:00:00 3.5 2 Noroeste 6 Sudeste 1.6 -- -- 93
2019-03-31 10:00:00 3.4 3 Sudeste 7 Sudeste 1.2 -- -- 92
2019-03-31 09:00:00 2.9 0 Calma 6 Este 0.8 -- -- 90
2019-03-31 08:00:00 3.3 0 Calma 6 Oeste 0.2 -- -- 82
2019-03-31 07:00:00 3.2 4 Noroeste 8 Noroeste 0 -- -- 76
2019-03-31 06:00:00 3.5 0 Calma 7 Oeste 0 -- -- 72
2019-03-31 05:00:00 3.8 0 Calma 3 Sur 0 -- -- 67
2019-03-31 03:00:00 4.6 0 Calma 14 Sur 0 -- -- 70
2019-03-31 01:00:00 4.5 6 Sur 21 Sur 0 -- -- 61
2019-03-31 00:00:00 4.5 14 Sur 21 Sur 0 -- -- 58
2019-03-30 23:00:00 3.2 5 Sudeste 25 Sur 0 -- -- 71
2019-03-30 22:00:00 3.4 14 Sur 29 Sur 0 -- -- 77
2019-03-30 21:00:00 4.1 19 Sur 32 Sur 0 -- -- 78
2019-03-30 20:00:00 5.4 15 Sur 31 Sudeste 0 -- -- 78
2019-03-30 19:00:00 6.9 20 Sudeste 39 Sudeste 0 -- -- 70
2019-03-30 18:00:00 9.9 17 Sudeste 28 Sudeste 0 -- -- 52
2019-03-30 17:00:00 11.2 15 Sudeste 29 Sudeste 0 -- -- 45
2019-03-30 16:00:00 11.6 14 Sudeste 27 Este 0 -- -- 41
2019-03-30 15:00:00 11.5 16 Sudeste 30 Sudeste 0 -- -- 42
2019-03-30 14:00:00 10.7 12 Este 24 Sudeste 0 -- -- 39
2019-03-30 13:00:00 9.4 9 Sudeste 22 Sudeste 0 -- -- 39
2019-03-30 12:00:00 7.4 13 Sudeste 27 Este 0 -- -- 45
2019-03-30 11:00:00 7.7 15 Sudeste 22 Sudeste 0 -- -- 46
2019-03-30 10:00:00 5.9 12 Este 20 Este 0 -- -- 47
2019-03-30 09:00:00 4.8 13 Sudeste 20 Sudeste 0 -- -- 48
2019-03-30 08:00:00 2.9 10 Sudeste 22 Sur 0 -- -- 51
2019-03-30 07:00:00 1.5 15 Sur 25 Sur 0 -- -- 57
2019-03-30 06:00:00 1.5 15 Sur 23 Sur 0 -- -- 59
2019-03-30 05:00:00 1.4 17 Sur 26 Sur 0 -- -- 61
2019-03-30 04:00:00 1.3 15 Sur 25 Sur 0 -- -- 62
2019-03-30 03:00:00 1.1 14 Sur 27 Sur 0 -- -- 64
2019-03-30 02:00:00 1.1 16 Sudeste 27 Sudeste 0 -- -- 70
2019-03-30 01:00:00 1.4 17 Sudeste 31 Sudeste 0 -- -- 73
2019-03-30 00:00:00 1.7 21 Sur 33 Sur 0 -- -- 78
2019-03-29 23:00:00 1.9 23 Sudeste 35 Sur 0 -- -- 78
2019-03-29 22:00:00 2.4 21 Sur 31 Sur 0 -- -- 74
2019-03-29 21:00:00 3.1 19 Sudeste 27 Sudeste 0 -- -- 68
2019-03-29 20:00:00 3.9 14 Sudeste 25 Sur 0 -- -- 65
2019-03-29 19:00:00 5.6 14 Sur 25 Este 0 -- -- 59
2019-03-29 18:00:00 7.5 15 Sudeste 27 Sudeste 0 -- -- 50
2019-03-29 17:00:00 9 17 Sudeste 31 Este 0 -- -- 43
2019-03-29 16:00:00 9.5 16 Sudeste 34 Sudeste 0 -- -- 42
2019-03-29 15:00:00 9.9 20 Sudeste 38 Sudeste 0 -- -- 37
2019-03-29 14:00:00 9.8 19 Sudeste 36 Sudeste 0 -- -- 34
2019-03-29 13:00:00 9.3 21 Sudeste 36 Sudeste 0 -- -- 37
2019-03-29 12:00:00 8.5 21 Sudeste 40 Sudeste 0 -- -- 40
2019-03-29 11:00:00 7.4 24 Sudeste 37 Sudeste 0 -- -- 42
2019-03-29 10:00:00 6.3 21 Sudeste 33 Sudeste 0 -- -- 43
2019-03-29 09:00:00 5.3 18 Sudeste 31 Sudeste 0 -- -- 46
2019-03-29 08:00:00 4.2 13 Sudeste 21 Sudeste 0 -- -- 49
2019-03-29 07:00:00 1.6 10 Sur 16 Sur 0 -- -- 55
2019-03-29 06:00:00 1.9 9 Sur 20 Sur 0 -- -- 52
2019-03-29 05:00:00 2 10 Sur 20 Sur 0 -- -- 46
2019-03-29 04:00:00 1.9 12 Sur 20 Sur 0 -- -- 30
2019-03-29 03:00:00 2.3 12 Sur 26 Sur 0 -- -- 31
2019-03-29 02:00:00 2.6 16 Sur 29 Sur 0 -- -- 32
2019-03-29 01:00:00 3.2 18 Sur 28 Sur 0 -- -- 36
2019-03-29 00:00:00 3.6 18 Sur 27 Sur 0 -- -- 50
2019-03-28 23:00:00 3.7 17 Sur 27 Sur 0 -- -- 52
2019-03-28 22:00:00 3.6 19 Sur 30 Sur 0 -- -- 55
2019-03-28 21:00:00 3.7 20 Sudeste 35 Sudeste 0 -- -- 60
2019-03-28 20:00:00 5.4 20 Sur 31 Sur 0 -- -- 51
2019-03-28 19:00:00 7.8 17 Sudeste 24 Sudeste 0 -- -- 41
2019-03-28 18:00:00 12.1 5 Nordeste 18 Nordeste 0 -- -- 28
2019-03-28 17:00:00 12.5 8 Nordeste 19 Nordeste 0 -- -- 27
2019-03-28 16:00:00 12.7 13 Nordeste 26 Este 0 -- -- 27
2019-03-28 15:00:00 12.3 9 Nordeste 25 Nordeste 0 -- -- 28
2019-03-28 14:00:00 11.9 6 Sudeste 21 Este 0 -- -- 27
2019-03-28 13:00:00 10.8 9 Nordeste 24 Este 0 -- -- 27
2019-03-28 12:00:00 9.8 9 Sudeste 21 Sudeste 0 -- -- 28
2019-03-28 11:00:00 9.2 8 Sudeste 22 Este 0 -- -- 30
2019-03-28 10:00:00 7.8 9 Este 17 Este 0 -- -- 33
2019-03-28 09:00:00 6.9 3 Nordeste 6 Nordeste 0 -- -- 31
2019-03-28 08:00:00 4.5 0 Calma 5 Sur 0 -- -- 33
2019-03-28 07:00:00 1.3 3 Sur 10 Sur 0 -- -- 32
2019-03-28 06:00:00 1.4 9 Sur 12 Sur 0 -- -- 48
2019-03-28 05:00:00 1.7 6 Sur 10 Sur 0 -- -- 56
2019-03-28 04:00:00 1.8 4 Sur 7 Sudeste 0 -- -- 58
2019-03-28 03:00:00 1.9 0 Calma 9 Sudeste 0 -- -- 60
2019-03-28 02:00:00 2.4 7 Sudeste 13 Sudeste 0 -- -- 56
2019-03-28 01:00:00 4.3 2 Noroeste 6 Oeste 0 -- -- 49
2019-03-28 00:00:00 4.6 3 Oeste 8 Oeste 0 -- -- 49
2019-03-27 23:00:00 3.7 0 Calma 6 Oeste 0 -- -- 52
2019-03-27 22:00:00 4.1 5 Oeste 8 Oeste 0 -- -- 51
2019-03-27 21:00:00 5.6 3 Oeste 7 Sudeste 0 -- -- 45
2019-03-27 20:00:00 6.8 7 Noroeste 14 Norte 0 -- -- 34
2019-03-27 19:00:00 9.5 10 Norte 21 Norte 0 -- -- 27
2019-03-27 18:00:00 11.2 13 Norte 25 Norte 0 -- -- 24
2019-03-27 17:00:00 11.4 12 Norte 25 Noroeste 0 -- -- 27
2019-03-27 16:00:00 11.2 6 Norte 33 Este 0 -- -- 27
2019-03-27 15:00:00 10.8 9 Este 27 Nordeste 0 -- -- 30
2019-03-27 14:00:00 10.2 15 Nordeste 35 Nordeste 0 -- -- 29
2019-03-27 13:00:00 9.7 12 Nordeste 21 Nordeste 0 -- -- 29
2019-03-27 12:00:00 8.6 10 Este 22 Este 0 -- -- 31
2019-03-27 11:00:00 7.7 8 Nordeste 15 Norte 0 -- -- 45
2019-03-27 10:00:00 4.9 4 Norte 10 Norte 0 -- -- 57
2019-03-27 09:00:00 3.9 3 Norte 8 Norte 0 -- -- 59
2019-03-27 08:00:00 1.7 0 Calma 7 Oeste 0 -- -- 67
2019-03-27 07:00:00 -1.7 0 Calma 3 Oeste 0 -- -- 94
2019-03-27 06:00:00 -1.9 2 Noroeste 8 Oeste 0 -- -- 94
2019-03-27 05:00:00 -0.9 5 Sur 12 Sur 0 -- -- 95
2019-03-27 04:00:00 -0.8 8 Sur 14 Sur 0 -- -- 95
2019-03-27 03:00:00 -0.8 2 Sudeste 10 Sur 0 -- -- 93
2019-03-27 02:00:00 -0.3 6 Sudeste 9 Sudeste 0 -- -- 92
2019-03-27 01:00:00 0.4 0 Calma 3 Noroeste 0 -- -- 85
2019-03-27 00:00:00 1.6 2 Oeste 16 Sur 0 -- -- 78
2019-03-26 23:00:00 2.3 11 Sudeste 19 Sur 0 -- -- 78
2019-03-26 22:00:00 3.7 2 Sudeste 7 Oeste 0 -- -- 55
2019-03-26 21:00:00 5.2 0 Calma 12 Noroeste 0 -- -- 46
2019-03-26 20:00:00 7.5 6 Noroeste 24 Norte 0 -- -- 29
2019-03-26 19:00:00 9.8 13 Norte 28 Norte 0 -- -- 23
2019-03-26 18:00:00 11.8 14 Norte 33 Noroeste 0 -- -- 22
2019-03-26 17:00:00 12.9 19 Norte 35 Norte 0 -- -- 16
2019-03-26 16:00:00 12.6 12 Norte 26 Norte 0 -- -- 32
2019-03-26 15:00:00 12.3 15 Nordeste 27 Norte 0 -- -- 35
2019-03-26 14:00:00 11.8 11 Este 24 Este 0 -- -- 34
2019-03-26 13:00:00 10.8 10 Nordeste 20 Nordeste 0 -- -- 37
2019-03-26 12:00:00 9.2 8 Nordeste 18 Nordeste 0 -- -- 45
2019-03-26 11:00:00 6.7 4 Norte 19 Norte 0 -- -- 52
2019-03-26 10:00:00 4.4 12 Norte 22 Noroeste 0 -- -- 61
2019-03-26 09:00:00 2.8 15 Noroeste 21 Noroeste 0 -- -- 70
2019-03-26 08:00:00 1.3 14 Noroeste 24 Oeste 0 -- -- 74
2019-03-26 07:00:00 -0.6 18 Oeste 26 Oeste 0 -- -- 83
2019-03-26 06:00:00 -0.1 17 Oeste 27 Oeste 0 -- -- 79
2019-03-26 05:00:00 0.1 19 Oeste 28 Noroeste 0 -- -- 79
2019-03-26 04:00:00 -0.1 18 Oeste 23 Noroeste 0 -- -- 79
2019-03-26 03:00:00 -0.3 14 Oeste 21 Oeste 0 -- -- 78
2019-03-26 02:00:00 0.6 10 Oeste 20 Noroeste 0 -- -- 74
2019-03-26 01:00:00 1.8 10 Noroeste 16 Oeste 0 -- -- 70
2019-03-26 00:00:00 2.2 8 Oeste 15 Noroeste 0 -- -- 67
2019-03-25 23:00:00 3.4 8 Oeste 17 Oeste 0 -- -- 63
2019-03-25 22:00:00 4.7 14 Oeste 23 Oeste 0 -- -- 58
2019-03-25 21:00:00 6.1 17 Noroeste 23 Oeste 0 -- -- 55
2019-03-25 20:00:00 7.8 13 Oeste 19 Noroeste 0 -- -- 53
2019-03-25 19:00:00 10.3 14 Noroeste 24 Noroeste 0 -- -- 46
2019-03-25 18:00:00 12.6 14 Norte 23 Nordeste 0 -- -- 40
2019-03-25 17:00:00 14.1 5 Noroeste 21 Norte 0 -- -- 31
2019-03-25 16:00:00 14.4 11 Nordeste 25 Norte 0 -- -- 32
2019-03-25 15:00:00 14 8 Noroeste 20 Norte 0 -- -- 29
2019-03-25 14:00:00 13.5 11 Nordeste 24 Nordeste 0 -- -- 30
2019-03-25 13:00:00 12.8 10 Norte 24 Nordeste 0 -- -- 33
2019-03-25 12:00:00 12.3 9 Nordeste 18 Norte 0 -- -- 37
2019-03-25 11:00:00 11.2 5 Norte 18 Noroeste 0 -- -- 36
2019-03-25 10:00:00 9.6 7 Norte 13 Norte 0 -- -- 44
2019-03-25 09:00:00 8 8 Norte 13 Noroeste 0 -- -- 44
2019-03-25 08:00:00 7 6 Noroeste 12 Noroeste 0 -- -- 45
2019-03-25 07:00:00 5 8 Oeste 13 Oeste 0 -- -- 51
2019-03-25 06:00:00 5.3 10 Oeste 13 Oeste 0 -- -- 51
2019-03-25 05:00:00 5.3 8 Oeste 11 Oeste 0 -- -- 49
2019-03-25 04:00:00 5.4 8 Oeste 13 Oeste 0 -- -- 48
2019-03-25 03:00:00 5.2 9 Oeste 12 Noroeste 0 -- -- 47
2019-03-25 02:00:00 6 3 Noroeste 5 Sudoeste 0 -- -- 44
2019-03-25 01:00:00 6.2 2 Oeste 8 Sudeste 0 -- -- 44
2019-03-25 00:00:00 7.1 5 Sudeste 10 Sur 0 -- -- 41
2019-03-24 23:00:00 7 8 Sur 17 Sur 0 -- -- 41
2019-03-24 22:00:00 7.4 13 Sur 21 Sur 0 -- -- 41
2019-03-24 21:00:00 7.8 14 Sur 21 Sur 0 -- -- 42
2019-03-24 20:00:00 8.7 13 Sur 22 Sur 0 -- -- 41
2019-03-24 19:00:00 10.5 15 Sudeste 29 Sudeste 0 -- -- 40
2019-03-24 18:00:00 12.4 13 Sudeste 23 Sur 0 -- -- 37
2019-03-24 17:00:00 14.8 5 Nordeste 25 Este 0 -- -- 26
2019-03-24 16:00:00 13.3 10 Este 30 Este 0 -- -- 30
2019-03-24 15:00:00 14 17 Este 35 Este 0 -- -- 27
2019-03-24 14:00:00 13.8 19 Este 36 Este 0 -- -- 30
2019-03-24 13:00:00 13.2 18 Este 41 Este 0 -- -- 31
2019-03-24 12:00:00 12.4 19 Este 36 Este 0 -- -- 34
2019-03-24 11:00:00 11.8 19 Este 34 Este 0 -- -- 34
2019-03-24 10:00:00 10.8 12 Este 30 Este 0 -- -- 33
2019-03-24 09:00:00 8.4 3 Norte 7 Norte 0 -- -- 43
2019-03-24 08:00:00 6 3 Noroeste 9 Oeste 0 -- -- 50
2019-03-24 07:00:00 4.6 3 Noroeste 10 Oeste 0 -- -- 55
2019-03-24 06:00:00 4.1 4 Oeste 8 Oeste 0 -- -- 58
2019-03-24 05:00:00 4.2 6 Oeste 9 Oeste 0 -- -- 59
2019-03-24 04:00:00 4.2 7 Oeste 9 Oeste 0 -- -- 60
2019-03-24 03:00:00 4.7 5 Oeste 9 Oeste 0 -- -- 58
2019-03-24 02:00:00 4.6 6 Oeste 10 Oeste 0 -- -- 59
2019-03-24 01:00:00 4.5 2 Oeste 6 Sur 0 -- -- 58
2019-03-24 00:00:00 4.9 6 Sudeste 9 Sur 0 -- -- 56
2019-03-23 23:00:00 5.2 2 Sudoeste 10 Sudeste 0 -- -- 57
2019-03-23 22:00:00 6.6 5 Sudeste 15 Sur 0 -- -- 56
2019-03-23 21:00:00 6.7 9 Sudeste 17 Sudeste 0 -- -- 59
2019-03-23 20:00:00 6.9 12 Sudeste 16 Sudeste 0 -- -- 62
2019-03-23 19:00:00 9 11 Sudeste 27 Este 0 -- -- 48
2019-03-23 18:00:00 10.7 19 Este 29 Este 0 -- -- 44
2019-03-23 17:00:00 11.3 14 Este 33 Sudeste 0 -- -- 42
2019-03-23 16:00:00 12.6 22 Este 37 Este 0 -- -- 38
2019-03-23 15:00:00 12 21 Este 33 Este 0 -- -- 40
2019-03-23 14:00:00 12.4 15 Este 35 Este 0 -- -- 40
2019-03-23 13:00:00 12 21 Este 37 Este 0 -- -- 41
2019-03-23 12:00:00 10.8 19 Este 35 Este 0 -- -- 42
2019-03-23 11:00:00 9.9 9 Nordeste 22 Nordeste 0 -- -- 50
2019-03-23 10:00:00 8.8 10 Norte 21 Norte 0 -- -- 54
2019-03-23 09:00:00 6.7 5 Noroeste 11 Noroeste 0 -- -- 63
2019-03-23 08:00:00 5.1 6 Noroeste 10 Noroeste 0 -- -- 68
2019-03-23 07:00:00 4 5 Noroeste 13 Noroeste 0 -- -- 71
2019-03-23 06:00:00 4.1 5 Noroeste 15 Oeste 0 -- -- 70
2019-03-23 05:00:00 4.2 9 Oeste 14 Noroeste 0 -- -- 69
2019-03-23 04:00:00 4.4 10 Oeste 14 Noroeste 0 -- -- 68
2019-03-23 03:00:00 4.7 9 Oeste 12 Oeste 0 -- -- 66
2019-03-23 02:00:00 4.5 6 Oeste 10 Oeste 0 -- -- 68
2019-03-23 01:00:00 4 6 Oeste 9 Oeste 0 -- -- 70
2019-03-23 00:00:00 4.4 0 Calma 8 Este 0 -- -- 68
2019-03-22 23:00:00 5.1 4 Sudeste 10 Sudeste 0 -- -- 66
2019-03-22 22:00:00 5.8 8 Sudeste 14 Sur 0 -- -- 63
2019-03-22 21:00:00 5.7 10 Sur 18 Sur 0 -- -- 64
2019-03-22 20:00:00 6.7 9 Sudeste 15 Sudeste 0 -- -- 59
2019-03-22 19:00:00 8.1 9 Este 14 Este 0 -- -- 54
2019-03-22 18:00:00 9.2 12 Este 21 Este 0 -- -- 51
2019-03-22 17:00:00 9.6 12 Este 22 Este 0 -- -- 50
2019-03-22 16:00:00 9.6 13 Este 25 Este 0 -- -- 49
2019-03-22 15:00:00 9.6 14 Este 28 Este 0 -- -- 47
2019-03-22 14:00:00 9.6 13 Este 30 Este 0 -- -- 45
2019-03-22 13:00:00 9.1 10 Nordeste 28 Este 0 -- -- 45
2019-03-22 12:00:00 8.1 7 Este 19 Este 0 -- -- 48
2019-03-22 11:00:00 7.1 10 Norte 18 Nordeste 0 -- -- 46
2019-03-22 10:00:00 5.7 9 Nordeste 31 Nordeste 0 -- -- 47
2019-03-22 09:00:00 3.7 6 Noroeste 13 Norte 0 -- -- 56
2019-03-22 08:00:00 2.3 5 Oeste 12 Oeste 0 -- -- 55
2019-03-22 07:00:00 1.1 4 Oeste 9 Oeste 0 -- -- 60
2019-03-22 06:00:00 0.8 5 Oeste 9 Oeste 0 -- -- 63
2019-03-22 05:00:00 1.3 0 Calma 5 Oeste 0 -- -- 61
2019-03-22 04:00:00 1.6 4 Oeste 9 Oeste 0 -- -- 60
2019-03-22 03:00:00 2.1 2 Sudoeste 8 Oeste 0 -- -- 58
2019-03-22 02:00:00 2.6 2 Norte 12 Sudoeste 0 -- -- 57
2019-03-22 01:00:00 1.8 5 Oeste 10 Noroeste 0 -- -- 66
2019-03-22 00:00:00 1.2 3 Noroeste 5 Noroeste 0 -- -- 70
2019-03-21 23:00:00 0.2 0 Calma 4 Oeste 0 -- -- 74
2019-03-21 22:00:00 1.1 0 Calma 16 Sur 0 -- -- 69
2019-03-21 21:00:00 1.9 10 Sur 19 Sur 0 -- -- 67
2019-03-21 20:00:00 2.6 15 Sur 24 Sur 0 -- -- 65
2019-03-21 19:00:00 4.7 14 Sudeste 23 Sudeste 0 -- -- 56
2019-03-21 18:00:00 8.8 3 Norte 18 Sudeste 0 -- -- 37
2019-03-21 17:00:00 8.4 9 Este 19 Este 0 -- -- 38
2019-03-21 16:00:00 7.6 6 Nordeste 21 Nordeste 0 -- -- 40
2019-03-21 15:00:00 7.5 5 Nordeste 20 Este 0 -- -- 38
2019-03-21 14:00:00 8 11 Nordeste 22 Nordeste 0 -- -- 39
2019-03-21 13:00:00 6.8 11 Nordeste 24 Este 0 -- -- 41
2019-03-21 12:00:00 5.5 7 Norte 25 Este 0 -- -- 45
2019-03-21 11:00:00 5.2 13 Norte 24 Norte 0 -- -- 46
2019-03-21 10:00:00 3.7 7 Norte 14 Norte 0 -- -- 52
2019-03-21 09:00:00 2 4 Noroeste 10 Noroeste 0 -- -- 58
2019-03-21 08:00:00 0.3 6 Oeste 11 Oeste 0 -- -- 63
2019-03-21 07:00:00 -1.1 8 Oeste 13 Oeste 0 -- -- 68
2019-03-21 06:00:00 -0.4 8 Oeste 13 Oeste 0 -- -- 66
2019-03-21 05:00:00 -1 8 Oeste 12 Oeste 0 -- -- 69
2019-03-21 04:00:00 -0.8 10 Oeste 15 Oeste 0 -- -- 68
2019-03-21 03:00:00 -0.6 9 Oeste 16 Oeste 0 -- -- 68
2019-03-21 02:00:00 -0.7 6 Noroeste 13 Noroeste 0 -- -- 76
2019-03-21 01:00:00 0.1 3 Oeste 10 Oeste 0 -- -- 86
2019-03-21 00:00:00 0.4 5 Noroeste 8 Noroeste 0 -- -- 78